Time;durP1;ratioP1;P1;durP2;ratioP2;P2;SDS_P1;SDS_P2;PMS_P1;PMS_P2;Temp;Humidity;BMP_temperature;BMP_pressure;BME280_temperature;BME280_humidity;BME280_pressure;Samples;Min_cycle;Max_cycle;Signal;HPM_P1;HPM_P2
2022/08/29 00:00:44;;;;;;;18.60;12.20;;;;;;;18.66;100.00;99298.57;1746015;81;21093;-64
2022/08/29 00:03:10;;;;;;;17.60;12.63;;;;;;;18.67;100.00;99298.81;1749074;81;21174;-65
2022/08/29 00:05:37;;;;;;;23.45;13.13;;;;;;;18.71;100.00;99302.48;1745239;80;21054;-64
2022/08/29 00:08:04;;;;;;;16.75;12.43;;;;;;;18.76;100.00;99303.11;1745536;81;21058;-64
2022/08/29 00:10:32;;;;;;;19.02;13.40;;;;;;;18.80;100.00;99302.68;1748171;81;21680;-65
2022/08/29 00:12:59;;;;;;;21.65;15.30;;;;;;;18.84;100.00;99300.06;1747645;81;21039;-64
2022/08/29 00:15:27;;;;;;;23.92;15.70;;;;;;;18.82;100.00;99299.00;1745935;81;21381;-65
2022/08/29 00:17:53;;;;;;;23.02;15.15;;;;;;;18.83;100.00;99295.67;1745248;81;21060;-65
2022/08/29 00:20:24;;;;;;;22.45;15.40;;;;;;;18.89;100.00;99295.70;1745730;81;21074;-65
2022/08/29 00:22:51;;;;;;;25.48;16.23;;;;;;;18.91;100.00;99289.30;1747989;80;21047;-65
2022/08/29 00:25:17;;;;;;;21.52;15.93;;;;;;;18.87;100.00;99283.64;1745502;81;21022;-65
2022/08/29 00:27:43;;;;;;;24.45;16.10;;;;;;;18.83;100.00;99286.02;1742141;81;21573;-65
2022/08/29 00:30:11;;;;;;;21.70;15.03;;;;;;;18.79;100.00;99289.22;1749106;81;21142;-65
2022/08/29 00:32:39;;;;;;;22.58;14.87;;;;;;;18.79;100.00;99291.41;1733130;82;20975;-65
2022/08/29 00:35:10;;;;;;;21.45;15.08;;;;;;;18.83;100.00;99289.59;1747704;81;21043;-65
2022/08/29 00:37:37;;;;;;;21.48;14.80;;;;;;;18.86;100.00;99297.76;1744485;81;21592;-64
2022/08/29 00:40:05;;;;;;;24.52;14.68;;;;;;;18.90;100.00;99290.42;1702611;83;21132;-64
2022/08/29 00:42:34;;;;;;;21.10;14.65;;;;;;;18.85;100.00;99288.67;1744546;81;21142;-65
2022/08/29 00:45:03;;;;;;;18.70;13.20;;;;;;;18.82;100.00;99286.59;1739058;81;21118;-65
2022/08/29 00:47:32;;;;;;;21.23;14.13;;;;;;;18.84;100.00;99284.89;1704123;82;21071;-65
2022/08/29 00:49:58;;;;;;;18.87;13.25;;;;;;;18.89;100.00;99291.00;1708942;83;21067;-65
2022/08/29 00:52:33;;;;;;;20.50;14.38;;;;;;;18.90;100.00;99290.42;1754891;81;21099;-65
2022/08/29 00:55:01;;;;;;;20.77;13.62;;;;;;;18.83;100.00;99282.70;1757564;80;21098;-66
2022/08/29 00:57:30;;;;;;;21.60;13.90;;;;;;;18.77;100.00;99290.14;1749770;80;21085;-65
2022/08/29 00:59:56;;;;;;;18.92;13.78;;;;;;;18.76;100.00;99287.14;1758001;80;21150;-65
2022/08/29 01:02:22;;;;;;;28.07;13.98;;;;;;;18.78;100.00;99284.27;1756993;81;21508;-65
2022/08/29 01:04:49;;;;;;;21.02;14.05;;;;;;;18.79;100.00;99283.13;1750122;80;21686;-66
2022/08/29 01:07:16;;;;;;;21.20;15.03;;;;;;;18.80;100.00;99282.56;1746145;80;21066;-65
2022/08/29 01:09:45;;;;;;;19.90;14.78;;;;;;;18.77;100.00;99289.58;1760997;80;21063;-65
2022/08/29 01:12:15;;;;;;;22.32;14.83;;;;;;;18.74;100.00;99285.30;1755046;81;21077;-64
2022/08/29 01:15:01;;;;;;;20.20;14.75;;;;;;;18.74;100.00;99283.92;1753761;81;21066;-64
2022/08/29 01:17:31;;;;;;;24.20;13.95;;;;;;;18.76;100.00;99288.52;1735068;81;21077;-64
2022/08/29 01:20:32;;;;;;;20.75;14.43;;;;;;;18.75;100.00;99282.19;1748782;80;21062;-65
2022/08/29 01:23:10;;;;;;;18.67;14.30;;;;;;;18.73;100.00;99280.35;1755649;81;21057;-64
2022/08/29 01:25:39;;;;;;;23.42;14.50;;;;;;;18.65;100.00;99277.66;1710610;82;21051;-64
2022/08/29 01:28:11;;;;;;;23.47;14.85;;;;;;;18.63;100.00;99278.57;1690204;83;21035;-65
2022/08/29 01:30:56;;;;;;;21.75;13.98;;;;;;;18.64;100.00;99273.27;1693154;84;21385;-64
2022/08/29 01:33:23;;;;;;;23.30;13.78;;;;;;;18.64;100.00;99277.41;1699231;83;21153;-64
2022/08/29 01:35:49;;;;;;;21.80;14.13;;;;;;;18.63;100.00;99275.81;1720585;82;21433;-65
2022/08/29 01:38:26;;;;;;;19.42;14.75;;;;;;;18.58;100.00;99276.00;1666832;84;21657;-65
2022/08/29 01:40:45;;;;;;;20.75;13.03;;;;;;;18.53;100.00;99277.00;1716825;83;21121;-64
2022/08/29 01:43:11;;;;;;;22.60;13.30;;;;;;;18.53;100.00;99278.97;1703232;83;21117;-64
2022/08/29 01:45:37;;;;;;;18.77;12.93;;;;;;;18.52;100.00;99284.23;1695327;83;21678;-64
2022/08/29 01:48:04;;;;;;;19.87;13.28;;;;;;;18.48;100.00;99273.61;1690024;83;21082;-64
2022/08/29 01:50:31;;;;;;;18.57;12.33;;;;;;;18.42;100.00;99273.58;1663752;85;21011;-65
2022/08/29 01:52:58;;;;;;;20.10;12.93;;;;;;;18.31;100.00;99269.03;1694555;83;21050;-64
2022/08/29 01:55:25;;;;;;;18.17;12.25;;;;;;;18.24;100.00;99277.83;1697067;83;21099;-64
2022/08/29 01:57:51;;;;;;;19.50;12.18;;;;;;;18.15;100.00;99277.05;1695585;83;21070;-64
2022/08/29 02:00:18;;;;;;;20.02;13.32;;;;;;;18.12;100.00;99276.34;1695040;84;21030;-65
2022/08/29 02:02:44;;;;;;;20.57;13.05;;;;;;;18.06;100.00;99274.93;1722366;82;22345;-64
2022/08/29 02:05:11;;;;;;;18.80;12.68;;;;;;;18.01;100.00;99268.78;1703936;83;21073;-64
2022/08/29 02:07:37;;;;;;;21.77;12.43;;;;;;;17.97;100.00;99271.95;1693469;83;21082;-64
2022/08/29 02:10:05;;;;;;;;;;;;;;;17.94;100.00;99271.25;1696182;83;21171;-64
2022/08/29 02:12:31;;;;;;;15.50;11.35;;;;;;;17.86;100.00;99271.52;1696341;83;20143;-64
2022/08/29 02:14:58;;;;;;;16.55;11.38;;;;;;;17.76;100.00;99273.27;1721362;83;21078;-64
2022/08/29 02:17:25;;;;;;;23.92;12.43;;;;;;;17.67;100.00;99282.14;1663638;83;21126;-64
2022/08/29 02:19:51;;;;;;;;;;;;;;;17.56;100.00;99272.59;1695005;83;22326;-64
2022/08/29 02:22:19;;;;;;;21.30;11.20;;;;;;;17.51;100.00;99271.38;1691032;84;20145;-64
2022/08/29 02:24:45;;;;;;;21.85;11.73;;;;;;;17.41;100.00;99271.17;1719940;82;21106;-64
2022/08/29 02:27:12;;;;;;;16.48;10.68;;;;;;;17.43;100.00;99274.39;1690687;83;21510;-64
2022/08/29 02:29:38;;;;;;;20.60;11.03;;;;;;;17.45;100.00;99273.52;1716491;83;21106;-64
2022/08/29 02:32:07;;;;;;;16.30;10.18;;;;;;;17.47;100.00;99271.80;1716543;82;21023;-64
2022/08/29 02:34:34;;;;;;;16.70;10.80;;;;;;;17.46;100.00;99272.95;1716661;82;21078;-64
2022/08/29 02:37:01;;;;;;;19.15;10.70;;;;;;;17.39;100.00;99276.99;1716708;83;21795;-64
2022/08/29 02:39:28;;;;;;;20.55;10.53;;;;;;;17.35;100.00;99276.63;1700964;83;21039;-64
2022/08/29 02:41:54;;;;;;;21.60;10.72;;;;;;;17.35;100.00;99281.56;1719960;82;21074;-64
2022/08/29 02:44:20;;;;;;;;;;;;;;;17.36;100.00;99282.34;1714943;82;21055;-65
2022/08/29 02:46:48;;;;;;;14.80;9.93;;;;;;;17.34;100.00;99284.06;1703783;82;20160;-65
2022/08/29 02:49:15;;;;;;;16.97;9.25;;;;;;;17.22;100.00;99285.28;1709324;82;21114;-64
2022/08/29 02:51:41;;;;;;;;;;;;;;;17.21;100.00;99284.25;1690110;83;21646;-64
2022/08/29 02:54:08;;;;;;;18.52;8.13;;;;;;;17.23;100.00;99283.34;1652918;85;20168;-64
2022/08/29 02:56:34;;;;;;;;;;;;;;;17.19;100.00;99287.88;1678719;85;21079;-64
2022/08/29 02:59:00;;;;;;;17.95;8.95;;;;;;;17.17;100.00;99281.34;1641193;86;20145;-64
2022/08/29 03:01:27;;;;;;;22.37;9.93;;;;;;;17.10;100.00;99283.78;1711109;82;21054;-64
2022/08/29 03:03:53;;;;;;;;;;;;;;;17.07;100.00;99289.94;1715022;82;21090;-64
2022/08/29 03:06:20;;;;;;;19.57;9.08;;;;;;;17.08;100.00;99287.97;1715086;82;20140;-64
2022/08/29 03:08:46;;;;;;;18.30;8.48;;;;;;;17.06;100.00;99286.94;1717175;82;22260;-64
2022/08/29 03:11:12;;;;;;;14.23;8.45;;;;;;;17.07;100.00;99280.31;1714713;82;21055;-64
2022/08/29 03:13:39;;;;;;;20.20;9.05;;;;;;;17.07;100.00;99285.00;1706163;83;21129;-64
2022/08/29 03:16:07;;;;;;;19.77;9.28;;;;;;;17.04;100.00;99292.53;1674067;84;21070;-64
2022/08/29 03:18:34;;;;;;;15.78;8.58;;;;;;;17.03;100.00;99294.47;1675930;84;21104;-64
2022/08/29 03:21:00;;;;;;;17.55;8.55;;;;;;;17.05;100.00;99294.94;1668857;85;21363;-64
2022/08/29 03:23:27;;;;;;;17.92;8.75;;;;;;;17.03;100.00;99294.47;1676376;84;21138;-64
2022/08/29 03:25:54;;;;;;;;;;;;;;;17.07;100.00;99293.25;1660094;85;21444;-64
2022/08/29 03:28:20;;;;;;;18.87;9.60;;;;;;;17.02;100.00;99301.09;1655703;85;20446;-64
2022/08/29 03:30:47;;;;;;;17.60;8.68;;;;;;;16.93;100.00;99296.17;1675282;85;21066;-64
2022/08/29 03:33:14;;;;;;;14.05;8.55;;;;;;;16.93;100.00;99298.92;1674195;84;21518;-64
2022/08/29 03:35:41;;;;;;;15.98;8.35;;;;;;;16.97;100.00;99288.87;1668834;84;20991;-64
2022/08/29 03:38:07;;;;;;;19.20;8.90;;;;;;;17.00;100.00;99284.13;1641719;86;21039;-64
2022/08/29 03:40:34;;;;;;;17.30;9.38;;;;;;;17.03;100.00;99278.53;1666819;84;21565;-64
2022/08/29 03:43:02;;;;;;;19.45;8.85;;;;;;;17.01;100.00;99291.22;1664279;84;21526;-64
2022/08/29 03:45:28;;;;;;;14.75;8.13;;;;;;;17.04;100.00;99283.69;1668307;84;21007;-64
2022/08/29 03:47:55;;;;;;;14.85;8.08;;;;;;;17.09;100.00;99289.03;1713517;82;21533;-64
2022/08/29 03:50:23;;;;;;;15.98;8.75;;;;;;;17.14;100.00;99290.25;1679045;80;70204;-70
2022/08/29 03:52:49;;;;;;;17.90;9.05;;;;;;;17.16;100.00;99285.78;1690494;83;21043;-70
2022/08/29 03:55:16;;;;;;;19.12;9.28;;;;;;;17.15;100.00;99291.84;1708070;82;21489;-70
2022/08/29 03:57:44;;;;;;;17.32;7.87;;;;;;;17.19;100.00;99293.38;1714266;82;21010;-71
2022/08/29 04:00:15;;;;;;;12.80;7.80;;;;;;;17.24;100.00;99289.91;1712731;83;21067;-70
2022/08/29 04:02:44;;;;;;;14.55;8.15;;;;;;;17.31;100.00;99296.28;1712933;83;21670;-71
2022/08/29 04:05:10;;;;;;;16.42;8.90;;;;;;;17.36;100.00;99291.97;1713936;83;21059;-71
2022/08/29 04:07:51;;;;;;;16.27;7.90;;;;;;;17.40;100.00;99293.75;1719013;83;21065;-71
2022/08/29 04:10:31;;;;;;;13.03;7.47;;;;;;;17.50;100.00;99291.80;1678455;84;21067;-71
2022/08/29 04:12:57;;;;;;;11.97;7.75;;;;;;;17.68;100.00;99294.75;1675558;85;21059;-71
2022/08/29 04:15:26;;;;;;;12.85;7.85;;;;;;;17.86;100.00;99299.05;1717619;83;21119;-71
2022/08/29 04:17:54;;;;;;;12.93;7.78;;;;;;;17.99;100.00;99295.86;1714689;83;21071;-71
2022/08/29 04:20:22;;;;;;;13.03;8.15;;;;;;;18.13;100.00;99297.81;1706689;83;21131;-71
2022/08/29 04:22:49;;;;;;;15.63;8.75;;;;;;;18.26;100.00;99300.33;1713723;83;21344;-71
2022/08/29 04:25:16;;;;;;;12.25;7.75;;;;;;;18.44;100.00;99298.84;1716085;83;21376;-69
2022/08/29 04:27:43;;;;;;;13.60;7.87;;;;;;;18.64;100.00;99299.45;1724928;82;21043;-69
2022/08/29 04:30:14;;;;;;;15.80;7.62;;;;;;;18.82;100.00;99296.25;1714889;83;21126;-69
2022/08/29 04:32:42;;;;;;;12.95;7.17;;;;;;;19.00;100.00;99306.56;1718618;83;21051;-69
2022/08/29 04:35:08;;;;;;;13.55;7.75;;;;;;;19.18;100.00;99296.99;1707137;83;21174;-70
2022/08/29 04:37:35;;;;;;;12.10;7.25;;;;;;;19.39;100.00;99306.03;1711049;82;21078;-70
2022/08/29 04:40:02;;;;;;;10.45;6.87;;;;;;;19.63;100.00;99300.37;1705048;83;21083;-70
2022/08/29 04:42:29;;;;;;;12.98;7.33;;;;;;;19.93;100.00;99304.58;1717051;82;21539;-70
2022/08/29 04:44:57;;;;;;;10.68;7.60;;;;;;;20.21;100.00;99293.07;1683967;84;21083;-70
2022/08/29 04:47:23;;;;;;;12.00;7.67;;;;;;;20.44;100.00;99289.87;1718800;83;21034;-70
2022/08/29 04:49:55;;;;;;;16.27;8.28;;;;;;;20.63;100.00;99293.63;1677712;85;21111;-70
2022/08/29 04:52:22;;;;;;;14.58;7.78;;;;;;;20.81;100.00;99291.39;1704620;84;21036;-70
2022/08/29 04:54:49;;;;;;;19.42;9.13;;;;;;;20.99;100.00;99285.80;1652904;86;21114;-70
2022/08/29 04:57:15;;;;;;;14.60;8.45;;;;;;;21.18;100.00;99281.05;1693856;84;21131;-70
2022/08/29 04:59:42;;;;;;;13.85;8.45;;;;;;;21.42;100.00;99282.30;1663712;86;21139;-70
2022/08/29 05:02:08;;;;;;;13.43;8.75;;;;;;;21.64;100.00;99292.80;1690797;84;21084;-70
2022/08/29 05:04:35;;;;;;;14.75;8.58;;;;;;;21.88;100.00;99279.36;1705092;84;21187;-70
2022/08/29 05:07:01;;;;;;;15.10;8.73;;;;;;;22.13;100.00;99275.84;1663292;85;21056;-70
2022/08/29 05:09:28;;;;;;;12.15;8.78;;;;;;;22.63;100.00;99281.39;1690679;84;21155;-70
2022/08/29 05:11:55;;;;;;;15.88;9.20;;;;;;;22.63;100.00;99281.39;1665977;86;21142;-70
2022/08/29 05:14:22;;;;;;;15.20;9.40;;;;;;;22.93;100.00;99271.13;1668545;86;21123;-70
2022/08/29 05:16:48;;;;;;;16.12;10.60;;;;;;;23.22;100.00;99276.91;1656642;86;21104;-70
2022/08/29 05:19:15;;;;;;;17.70;10.28;;;;;;;23.47;100.00;99264.91;1705566;83;21137;-70
2022/08/29 05:21:42;;;;;;;16.02;10.93;;;;;;;23.61;100.00;99265.17;1704329;84;21007;-69
2022/08/29 05:24:10;;;;;;;18.67;10.63;;;;;;;23.87;100.00;99266.41;1694301;84;21064;-69
2022/08/29 05:26:41;;;;;;;17.82;10.63;;;;;;;24.07;100.00;99259.01;1703017;84;21052;-70
2022/08/29 05:29:09;;;;;;;15.23;10.88;;;;;;;24.32;100.00;99262.80;1705115;84;21378;-69
2022/08/29 05:31:39;;;;;;;18.73;11.50;;;;;;;24.52;100.00;99258.71;1700438;84;20999;-70
2022/08/29 05:34:06;;;;;;;20.77;11.68;;;;;;;24.74;100.00;99262.01;1700580;82;21122;-70
2022/08/29 05:36:33;;;;;;;17.73;11.03;;;;;;;25.00;100.00;99255.62;1713521;82;20988;-69
2022/08/29 05:39:00;;;;;;;16.05;11.15;;;;;;;25.28;100.00;99257.34;1712440;84;21567;-70
2022/08/29 05:41:28;;;;;;;19.30;11.75;;;;;;;25.37;100.00;99262.01;1702686;84;20984;-70
2022/08/29 05:43:56;;;;;;;18.27;11.43;;;;;;;25.41;100.00;99260.06;1704153;84;21079;-70
2022/08/29 05:46:23;;;;;;;20.40;12.37;;;;;;;25.57;100.00;99258.48;1705922;84;21491;-71
2022/08/29 05:48:49;;;;;;;18.20;11.70;;;;;;;25.80;100.00;99260.48;1659009;84;21699;-71
2022/08/29 05:51:18;;;;;;;17.70;12.18;;;;;;;26.03;100.00;99256.91;1653427;85;21161;-70
2022/08/29 05:53:45;;;;;;;16.77;10.85;;;;;;;26.24;100.00;99259.09;1705218;83;22023;-70
2022/08/29 05:56:11;;;;;;;17.55;12.03;;;;;;;26.39;100.00;99254.42;1696298;84;21098;-71
2022/08/29 05:58:38;;;;;;;16.32;11.30;;;;;;;26.45;100.00;99256.45;1679849;84;21099;-70
2022/08/29 06:01:05;;;;;;;16.17;11.85;;;;;;;26.69;100.00;99254.98;1706432;82;21042;-70
2022/08/29 06:03:31;;;;;;;17.57;11.80;;;;;;;26.80;100.00;99253.05;1706514;82;21067;-69
2022/08/29 06:05:58;;;;;;;19.35;11.75;;;;;;;27.01;100.00;99255.16;1699857;84;21558;-69
2022/08/29 06:08:25;;;;;;;18.17;12.05;;;;;;;27.27;100.00;99251.27;1704529;82;21099;-70
2022/08/29 06:10:51;;;;;;;16.10;11.90;;;;;;;27.50;100.00;99251.16;1701877;82;21095;-69
2022/08/29 06:13:18;;;;;;;18.20;11.63;;;;;;;27.52;100.00;99263.34;1692640;82;21067;-70
2022/08/29 06:15:45;;;;;;;17.75;11.60;;;;;;;27.56;100.00;99264.94;1708778;82;21037;-70
2022/08/29 06:18:11;;;;;;;16.23;11.43;;;;;;;27.75;100.00;99270.77;1704730;84;21024;-70
2022/08/29 06:20:38;;;;;;;15.60;11.53;;;;;;;27.97;100.00;99265.99;1703244;82;21008;-69
2022/08/29 06:23:04;;;;;;;16.52;12.20;;;;;;;28.24;100.00;99270.00;1706623;83;21007;-70
2022/08/29 06:25:32;;;;;;;17.77;11.48;;;;;;;28.50;100.00;99267.38;1709770;83;21070;-71
2022/08/29 06:27:58;;;;;;;18.95;12.13;;;;;;;28.64;100.00;99279.35;1637320;86;21044;-69
2022/08/29 06:30:24;;;;;;;17.23;11.85;;;;;;;28.88;100.00;99274.91;1669955;84;21080;-70
2022/08/29 06:32:52;;;;;;;17.50;11.25;;;;;;;29.09;99.00;99272.02;1715405;82;21050;-69
2022/08/29 06:35:18;;;;;;;15.55;11.35;;;;;;;29.29;96.14;99272.98;1701794;84;21067;-69
2022/08/29 06:37:45;;;;;;;15.50;10.78;;;;;;;29.43;93.68;99278.52;1697360;82;21075;-73
2022/08/29 06:40:11;;;;;;;18.50;11.15;;;;;;;29.52;88.74;99284.45;1700366;82;21069;-71
2022/08/29 06:42:38;;;;;;;17.92;11.63;;;;;;;29.64;89.95;99283.40;1699355;82;20993;-74
2022/08/29 06:45:07;;;;;;;13.78;10.53;;;;;;;29.74;88.63;99280.31;1686192;84;21132;-73
2022/08/29 06:47:33;;;;;;;16.97;10.10;;;;;;;29.78;89.15;99276.89;1697818;84;21003;-73
2022/08/29 06:49:59;;;;;;;13.68;10.43;;;;;;;29.90;86.11;99284.83;1700322;83;21064;-72
2022/08/29 06:56:45;;;;;;;16.80;10.70;;;;;;;30.44;83.49;99280.40;1851120;76;22306;-66
2022/08/29 06:59:12;;;;;;;18.42;10.70;;;;;;;30.46;81.84;99287.81;1835532;77;21051;-67
2022/08/29 07:01:41;;;;;;;16.55;11.00;;;;;;;30.56;79.29;99286.11;1825344;77;21148;-67
2022/08/29 07:04:07;;;;;;;15.38;10.25;;;;;;;30.69;76.54;99284.96;1814695;78;20962;-66
2022/08/29 07:06:36;;;;;;;16.27;10.40;;;;;;;30.77;81.32;99290.09;1783394;79;21100;-67
2022/08/29 07:09:03;;;;;;;15.43;10.18;;;;;;;30.87;77.71;99291.98;1757879;81;21026;-66
2022/08/29 07:11:31;;;;;;;17.42;10.25;;;;;;;30.85;77.96;99296.44;1771782;79;22208;-66
2022/08/29 07:14:03;;;;;;;13.68;10.23;;;;;;;30.84;78.92;99294.84;1793891;80;21078;-67
2022/08/29 07:16:31;;;;;;;14.55;10.23;;;;;;;30.84;77.02;99294.23;1771513;79;21574;-67
2022/08/29 07:18:57;;;;;;;19.45;10.72;;;;;;;30.91;80.21;99291.34;1772897;81;21097;-68
2022/08/29 07:21:25;;;;;;;13.93;10.60;;;;;;;31.03;82.95;99292.25;1771962;79;21631;-67
2022/08/29 07:23:53;;;;;;;16.23;10.13;;;;;;;31.09;75.00;99284.94;1771984;80;21061;-67
2022/08/29 07:26:28;;;;;;;13.75;9.68;;;;;;;30.96;75.03;99285.88;1785108;78;21069;-67
2022/08/29 07:28:58;;;;;;;13.58;9.70;;;;;;;31.03;76.52;99288.03;1771153;80;21028;-67
2022/08/29 07:31:25;;;;;;;12.82;9.50;;;;;;;30.88;70.82;99285.16;1772800;79;21052;-66
2022/08/29 07:33:51;;;;;;;16.87;10.50;;;;;;;30.63;68.74;99273.39;1772672;81;22207;-67
2022/08/29 07:36:18;;;;;;;11.73;9.23;;;;;;;30.41;71.77;99277.02;1776612;79;21100;-68
2022/08/29 07:38:44;;;;;;;15.80;8.78;;;;;;;30.35;68.71;99282.88;1782438;79;21080;-67
2022/08/29 07:41:15;;;;;;;15.08;10.08;;;;;;;30.16;74.65;99279.82;1790599;79;21103;-67
2022/08/29 07:43:42;;;;;;;14.50;9.33;;;;;;;30.28;74.72;99287.15;1791136;79;21062;-67
2022/08/29 07:46:11;;;;;;;13.13;9.73;;;;;;;30.35;74.99;99286.28;1772099;78;21126;-66
2022/08/29 07:48:38;;;;;;;16.75;9.38;;;;;;;30.51;74.86;99281.73;1763182;80;20958;-68
2022/08/29 07:51:11;;;;;;;14.15;9.30;;;;;;;30.70;72.88;99281.75;1812172;77;21171;-67
2022/08/29 07:53:38;;;;;;;14.05;8.50;;;;;;;30.82;72.74;99282.59;1787033;79;21522;-68
2022/08/29 07:56:17;;;;;;;17.85;8.83;;;;;;;30.87;67.90;99280.75;1789448;77;21006;-66
2022/08/29 07:58:43;;;;;;;10.82;7.78;;;;;;;30.93;66.41;99281.88;1777189;79;20961;-67
2022/08/29 08:01:10;;;;;;;15.65;8.43;;;;;;;30.96;61.15;99279.63;1759383;80;21702;-68
2022/08/29 08:03:37;;;;;;;13.18;8.80;;;;;;;30.75;62.22;99281.91;1761751;80;20981;-67
2022/08/29 08:06:04;;;;;;;15.55;8.50;;;;;;;30.39;61.00;99287.05;1762605;80;21080;-67
2022/08/29 08:08:31;;;;;;;12.82;8.78;;;;;;;30.19;67.79;99289.62;1718851;81;21120;-67
2022/08/29 08:10:58;;;;;;;17.60;8.75;;;;;;;30.24;67.50;99291.19;1759860;80;21078;-66
2022/08/29 08:13:24;;;;;;;16.73;7.85;;;;;;;30.29;69.20;99285.91;1787500;79;21070;-67
2022/08/29 08:15:51;;;;;;;13.88;7.87;;;;;;;30.37;64.77;99294.47;1779532;79;22372;-68
2022/08/29 08:18:18;;;;;;;12.00;7.80;;;;;;;30.33;67.24;99290.89;1772151;80;21044;-66
2022/08/29 08:20:47;;;;;;;11.75;7.58;;;;;;;30.54;68.71;99295.54;1787363;79;21084;-69
2022/08/29 08:23:16;;;;;;;12.43;7.58;;;;;;;30.87;66.32;99294.80;1765070;80;21007;-67
2022/08/29 08:25:42;;;;;;;17.35;7.22;;;;;;;30.91;61.63;99295.56;1767765;79;21084;-67
2022/08/29 08:28:09;;;;;;;11.05;7.12;;;;;;;30.86;59.94;99298.81;1784914;80;21587;-67
2022/08/29 08:30:36;;;;;;;12.50;7.30;;;;;;;30.79;61.23;99298.09;1770216;79;21399;-66
2022/08/29 08:33:03;;;;;;;12.93;6.90;;;;;;;30.80;61.81;99299.09;1767455;79;21055;-68
2022/08/29 08:35:29;;;;;;;10.58;6.67;;;;;;;30.86;60.39;99296.01;1778370;79;21099;-67
2022/08/29 08:37:55;;;;;;;11.40;7.22;;;;;;;30.81;56.81;99293.67;1780623;79;20993;-68
2022/08/29 08:40:29;;;;;;;12.03;7.28;;;;;;;30.70;58.43;99297.80;1780432;79;21097;-66
2022/08/29 08:43:00;;;;;;;14.70;7.35;;;;;;;30.70;60.01;99288.77;1813956;79;21071;-68
2022/08/29 08:45:38;;;;;;;10.98;6.78;;;;;;;30.68;57.72;99287.60;1775458;79;21030;-68
2022/08/29 08:48:20;;;;;;;11.15;7.33;;;;;;;30.64;59.78;99295.27;1775848;80;20958;-67
2022/08/29 08:51:01;;;;;;;10.35;7.05;;;;;;;30.71;58.47;99295.19;1781504;79;21021;-66
2022/08/29 08:53:38;;;;;;;11.25;7.47;;;;;;;30.89;58.66;99294.39;1775983;80;20963;-67
2022/08/29 08:56:13;;;;;;;13.25;6.95;;;;;;;31.10;58.90;99304.02;1772316;79;21072;-67
2022/08/29 08:58:57;;;;;;;14.73;7.03;;;;;;;31.25;57.95;99296.20;1767794;80;21628;-67
2022/08/29 09:01:44;;;;;;;13.25;7.40;;;;;;;31.23;55.28;99294.41;1760772;80;21097;-67
2022/08/29 09:04:34;;;;;;;11.10;7.47;;;;;;;31.19;53.38;99298.67;1758350;80;21010;-67
2022/08/29 09:07:38;;;;;;;16.02;8.18;;;;;;;31.12;56.72;99295.14;1788065;80;21058;-67
2022/08/29 09:10:40;;;;;;;10.03;7.67;;;;;;;31.14;53.19;99292.73;1775515;80;21094;-68
2022/08/29 09:13:24;;;;;;;15.90;7.50;;;;;;;31.04;56.21;99293.02;1758123;81;21014;-68
2022/08/29 09:15:53;;;;;;;12.70;7.28;;;;;;;31.13;56.29;99300.36;1758150;80;21564;-67
2022/08/29 09:18:41;;;;;;;12.95;7.78;;;;;;;31.24;54.17;99302.44;1758647;81;21038;-67
2022/08/29 09:21:12;;;;;;;12.98;7.85;;;;;;;31.25;52.79;99297.61;1758178;80;21086;-67
2022/08/29 09:23:48;;;;;;;13.30;6.83;;;;;;;31.09;52.59;99302.41;1756328;80;21018;-67
2022/08/29 09:26:16;;;;;;;9.20;6.83;;;;;;;31.15;54.15;99299.31;1753301;80;21085;-67
2022/08/29 09:28:42;;;;;;;11.10;6.58;;;;;;;31.20;52.92;99300.27;1765814;80;20994;-68
2022/08/29 09:31:32;;;;;;;12.53;6.95;;;;;;;31.25;52.76;99291.98;1756028;81;21037;-67
2022/08/29 09:34:08;;;;;;;9.95;6.80;;;;;;;31.29;54.58;99289.90;1759090;80;21034;-67
2022/08/29 09:36:47;;;;;;;12.40;6.70;;;;;;;31.26;52.03;99289.34;1755174;80;21071;-67
2022/08/29 09:39:28;;;;;;;9.40;6.50;;;;;;;31.11;52.76;99291.53;1784401;80;21253;-68
2022/08/29 09:42:16;;;;;;;15.00;6.60;;;;;;;31.00;50.96;99292.27;1778084;79;21045;-66
2022/08/29 09:44:56;;;;;;;11.10;7.00;;;;;;;30.93;53.47;99298.73;1777671;78;21010;-67
2022/08/29 09:47:27;;;;;;;9.85;6.47;;;;;;;30.94;55.73;99291.91;1798957;79;21536;-68
2022/08/29 09:50:18;;;;;;;12.28;6.28;;;;;;;30.96;53.99;99282.44;1758489;79;21084;-66
2022/08/29 09:52:55;;;;;;;10.78;6.37;;;;;;;31.02;55.10;99287.03;1770175;79;21381;-66
2022/08/29 09:55:35;;;;;;;13.28;6.40;;;;;;;31.04;51.57;99280.38;1789071;78;21057;-67
2022/08/29 09:58:09;;;;;;;9.73;6.37;;;;;;;30.96;52.68;99294.31;1787885;79;21005;-69
2022/08/29 10:00:38;;;;;;;8.28;6.10;;;;;;;30.83;50.01;99284.81;1770371;79;22358;-69
2022/08/29 10:03:20;;;;;;;15.38;6.85;;;;;;;30.68;51.99;99291.18;1803584;79;21479;-67
2022/08/29 10:05:47;;;;;;;13.30;6.08;;;;;;;30.66;53.80;99282.39;1811895;78;21472;-67
2022/08/29 10:08:35;;;;;;;10.15;6.20;;;;;;;30.67;52.77;99288.20;1762460;80;20982;-66
2022/08/29 10:11:07;;;;;;;14.98;6.85;;;;;;;30.68;51.15;99289.78;1765101;78;21110;-67
2022/08/29 10:13:42;;;;;;;15.05;6.50;;;;;;;30.53;51.37;99279.32;1789136;78;20982;-68
2022/08/29 10:16:41;;;;;;;10.45;6.37;;;;;;;30.37;51.35;99278.23;1759644;80;21066;-67
2022/08/29 10:19:20;;;;;;;12.18;6.58;;;;;;;30.20;52.35;99271.57;1778452;80;21000;-68
2022/08/29 10:22:11;;;;;;;9.08;6.30;;;;;;;30.20;56.00;99272.17;1760550;80;21566;-67
2022/08/29 10:25:05;;;;;;;14.58;6.25;;;;;;;30.31;55.26;99271.48;1807308;78;21492;-68
2022/08/29 10:27:59;;;;;;;12.07;6.20;;;;;;;30.41;53.92;99271.98;1792962;78;21089;-68
2022/08/29 10:30:29;;;;;;;11.88;6.35;;;;;;;30.47;54.21;99273.14;1778730;78;21086;-67
2022/08/29 10:33:25;;;;;;;9.53;6.37;;;;;;;30.39;54.23;99278.63;1798312;78;20988;-67
2022/08/29 10:36:00;;;;;;;8.83;5.85;;;;;;;30.33;54.63;99278.27;1786307;80;21108;-69
2022/08/29 10:38:49;;;;;;;13.25;6.55;;;;;;;30.29;52.89;99276.09;1790095;78;20965;-68
2022/08/29 10:41:40;;;;;;;11.43;6.30;;;;;;;30.21;53.69;99277.98;1797223;78;21510;-67
2022/08/29 10:44:18;;;;;;;15.93;7.28;;;;;;;30.10;54.29;99276.08;1791784;78;20955;-72
2022/08/29 10:47:11;;;;;;;11.45;6.70;;;;;;;30.12;54.51;99272.83;1788263;79;21002;-71
2022/08/29 10:50:04;;;;;;;12.33;5.90;;;;;;;30.21;56.78;99275.18;1799348;78;21470;-73
2022/08/29 10:52:39;;;;;;;9.70;6.55;;;;;;;30.35;59.19;99270.84;1791813;78;20964;-73
2022/08/29 10:55:26;;;;;;;13.83;6.00;;;;;;;30.51;55.65;99280.33;1764093;80;20990;-70
2022/08/29 10:58:05;;;;;;;11.20;6.10;;;;;;;30.58;54.96;99269.02;1795716;78;20970;-68
2022/08/29 11:00:46;;;;;;;9.93;5.83;;;;;;;30.61;56.64;99270.99;1771854;80;21048;-70
2022/08/29 11:03:39;;;;;;;9.55;5.35;;;;;;;30.54;55.21;99268.86;1768898;80;21436;-69
2022/08/29 11:08:49;;;;;;;;;;;;;;;30.52;54.27;99262.88;1812524;78;23892;-69
2022/08/29 11:11:19;;;;;;;16.75;6.12;;;;;;;30.44;55.35;99268.36;1754087;80;20535;-70
2022/08/29 11:13:50;;;;;;;14.15;5.42;;;;;;;30.43;56.41;99264.75;1752142;81;21014;-69
2022/08/29 11:16:28;;;;;;;9.30;5.12;;;;;;;30.48;55.72;99271.94;1757971;80;21074;-71
2022/08/29 11:19:18;;;;;;;12.07;5.40;;;;;;;30.47;56.25;99273.14;1748093;80;21038;-71
2022/08/29 11:21:56;;;;;;;10.65;5.75;;;;;;;30.45;55.49;99273.58;1758473;80;21102;-71
2022/08/29 11:24:22;;;;;;;12.40;5.42;;;;;;;30.36;55.64;99277.42;1754579;81;21093;-73
2022/08/29 11:27:01;;;;;;;11.70;5.60;;;;;;;30.27;56.19;99269.30;1738808;80;21055;-71
2022/08/29 11:29:53;;;;;;;12.28;5.42;;;;;;;30.26;61.80;99268.50;1755623;81;21021;-71
2022/08/29 11:32:44;;;;;;;13.45;5.83;;;;;;;30.30;58.48;99264.25;1749473;81;21025;-71
2022/08/29 11:35:20;;;;;;;11.55;5.33;;;;;;;30.28;57.13;99265.29;1758534;80;21088;-73
2022/08/29 11:38:13;;;;;;;16.27;5.55;;;;;;;30.20;55.53;99267.36;1750282;80;21097;-72
2022/08/29 11:40:57;;;;;;;9.55;5.22;;;;;;;30.08;57.05;99258.83;1752865;81;21607;-72
2022/08/29 11:43:27;;;;;;;9.83;4.67;;;;;;;30.05;58.71;99259.66;1723497;81;21019;-71